Time;durP1;ratioP1;P1;durP2;ratioP2;P2;SDS_P1;SDS_P2;PMS_P1;PMS_P2;Temp;Humidity;BMP_temperature;BMP_pressure;BME280_temperature;BME280_humidity;BME280_pressure;Samples;Min_cycle;Max_cycle;Signal;HPM_P1;HPM_P2
2021/11/01 00:00:45;;;;;;;56.50;32.53;;;;;;;13.30;80.46;100119.28;5114557;27;20024;-72
2021/11/01 00:03:11;;;;;;;56.50;31.88;;;;;;;13.31;79.98;100119.13;5115395;27;20106;-72
2021/11/01 00:05:36;;;;;;;53.47;31.73;;;;;;;13.34;80.07;100121.44;5115134;27;20023;-72
2021/11/01 00:08:02;;;;;;;51.97;31.02;;;;;;;13.37;80.26;100113.13;5122172;27;20091;-72
2021/11/01 00:10:27;;;;;;;53.47;31.63;;;;;;;13.41;79.97;100121.56;5111148;27;20080;-72
2021/11/01 00:12:53;;;;;;;53.67;31.65;;;;;;;13.38;79.89;100108.63;5121164;27;20317;-72
2021/11/01 00:15:18;;;;;;;55.85;32.22;;;;;;;13.41;79.73;100109.09;5116523;27;20085;-72
2021/11/01 00:17:44;;;;;;;59.35;32.47;;;;;;;13.45;79.51;100109.59;5113891;27;20036;-72
2021/11/01 00:20:10;;;;;;;59.90;32.55;;;;;;;13.44;79.75;100105.28;5113594;27;20030;-71
2021/11/01 00:22:37;;;;;;;55.78;32.60;;;;;;;13.48;79.31;100101.28;5122056;27;20051;-71
2021/11/01 00:25:05;;;;;;;58.15;34.15;;;;;;;13.45;79.36;100101.63;5116661;27;20047;-72
2021/11/01 00:27:31;;;;;;;62.25;34.75;;;;;;;13.46;79.43;100091.81;5120734;27;20337;-72
2021/11/01 00:29:56;;;;;;;58.58;32.67;;;;;;;13.49;79.08;100080.81;5116524;27;20039;-72
2021/11/01 00:32:22;;;;;;;55.90;32.42;;;;;;;13.41;79.54;100090.50;5113056;27;20213;-72
2021/11/01 00:34:47;;;;;;;53.85;31.33;;;;;;;13.35;79.62;100085.84;5121160;27;20035;-72
2021/11/01 00:37:13;;;;;;;56.83;30.88;;;;;;;13.30;79.94;100082.06;5114626;27;20301;-72
2021/11/01 00:39:38;;;;;;;56.72;31.52;;;;;;;13.36;79.43;100079.53;5108770;27;20247;-72
2021/11/01 00:42:05;;;;;;;56.40;31.75;;;;;;;13.35;79.61;100077.03;5112308;27;20141;-71
2021/11/01 00:44:31;;;;;;;50.42;30.27;;;;;;;13.32;79.71;100074.72;5105777;28;20024;-72
2021/11/01 00:46:58;;;;;;;52.75;29.35;;;;;;;13.21;79.57;100070.63;5111582;27;20146;-71
2021/11/01 00:49:25;;;;;;;53.08;31.05;;;;;;;13.10;80.47;100076.25;5113746;27;20033;-70
2021/11/01 00:51:51;;;;;;;55.58;29.80;;;;;;;13.17;79.67;100071.94;5110062;27;20036;-70
2021/11/01 00:54:17;;;;;;;50.20;28.20;;;;;;;13.09;79.71;100077.25;5121003;27;20027;-71
2021/11/01 00:56:42;;;;;;;51.05;29.08;;;;;;;13.06;79.97;100075.78;5117494;27;20375;-71
2021/11/01 00:59:08;;;;;;;57.28;29.35;;;;;;;13.10;78.89;100073.59;5121044;27;20072;-71
2021/11/01 01:01:33;;;;;;;51.22;28.38;;;;;;;13.09;78.77;100075.44;5111205;27;20240;-71
2021/11/01 01:04:02;;;;;;;50.38;28.60;;;;;;;12.96;79.30;100074.31;5113678;27;20653;-71
2021/11/01 01:06:28;;;;;;;52.40;29.83;;;;;;;12.95;79.56;100068.16;5113517;27;20031;-71
2021/11/01 01:08:54;;;;;;;51.53;27.98;;;;;;;12.89;79.89;100060.03;5107723;28;20381;-71
2021/11/01 01:11:20;;;;;;;52.80;28.52;;;;;;;12.84;79.82;100068.50;5114234;27;20024;-71
2021/11/01 01:13:46;;;;;;;58.45;31.58;;;;;;;12.82;80.18;100072.34;5112307;27;20383;-71
2021/11/01 01:16:28;;;;;;;61.00;32.47;;;;;;;12.68;81.09;100069.38;5119643;27;20031;-72
2021/11/01 01:18:58;;;;;;;83.82;39.35;;;;;;;12.50;82.63;100070.53;5113974;27;20054;-72
2021/11/01 01:24:10;;;;;;;62.35;34.72;;;;;;;12.30;83.58;100062.88;5112317;27;20035;-71
2021/11/01 01:26:36;;;;;;;62.72;33.03;;;;;;;12.39;83.10;100061.88;5115902;28;20314;-71
2021/11/01 01:29:03;;;;;;;59.17;33.15;;;;;;;12.44;82.56;100062.22;5117350;28;20325;-72
2021/11/01 01:31:28;;;;;;;57.28;33.17;;;;;;;12.52;81.89;100064.06;5119104;28;20024;-72
2021/11/01 01:33:54;;;;;;;58.53;31.55;;;;;;;12.50;81.97;100063.41;5114862;28;20044;-72
2021/11/01 01:36:19;;;;;;;53.38;31.15;;;;;;;12.29;82.43;100060.38;5111482;28;20041;-72
2021/11/01 01:38:46;;;;;;;53.08;29.88;;;;;;;12.29;82.15;100057.72;5109509;28;20024;-72
2021/11/01 01:41:21;;;;;;;53.20;31.15;;;;;;;12.11;82.23;100060.53;5108358;28;20473;-72
2021/11/01 01:43:52;;;;;;;55.63;30.30;;;;;;;11.95;82.69;100063.16;5107334;28;20047;-72
2021/11/01 01:46:18;;;;;;;57.90;31.02;;;;;;;11.89;83.17;100061.16;5115162;28;20028;-72
2021/11/01 01:48:44;;;;;;;54.50;29.63;;;;;;;11.98;82.70;100054.88;5115865;28;20027;-72
2021/11/01 01:51:10;;;;;;;56.38;30.33;;;;;;;11.93;81.98;100052.72;5114620;28;20177;-71
2021/11/01 01:53:37;;;;;;;53.80;29.60;;;;;;;12.03;81.08;100050.72;5117555;28;20321;-71
2021/11/01 01:56:04;;;;;;;55.78;29.35;;;;;;;12.26;79.26;100048.25;5114924;28;20032;-72
2021/11/01 01:58:53;;;;;;;58.05;30.50;;;;;;;12.27;79.71;100054.41;5117501;28;20077;-72
2021/11/01 02:01:19;;;;;;;64.78;30.35;;;;;;;12.18;78.77;100055.41;5083162;28;20329;-72
2021/11/01 02:03:52;;;;;;;56.72;30.52;;;;;;;12.24;77.84;100052.06;5085642;28;20065;-72
2021/11/01 02:06:43;;;;;;;48.40;28.63;;;;;;;12.28;77.54;100050.75;5093784;28;20031;-72
2021/11/01 02:09:12;;;;;;;57.75;31.02;;;;;;;12.11;78.15;100048.09;5098216;28;20048;-72
2021/11/01 02:11:46;;;;;;;53.85;30.95;;;;;;;12.04;77.89;100048.91;5090465;28;20028;-72
2021/11/01 02:14:13;;;;;;;54.42;30.92;;;;;;;12.24;77.39;100039.63;5105707;28;20042;-72
2021/11/01 02:16:41;;;;;;;57.47;31.33;;;;;;;12.25;77.25;100046.59;5098216;28;20024;-72
2021/11/01 02:19:10;;;;;;;58.35;32.42;;;;;;;12.09;77.65;100042.13;5083372;28;20480;-71
2021/11/01 02:21:48;;;;;;;59.97;33.85;;;;;;;11.97;78.14;100003.63;5090839;28;20036;-71
2021/11/01 02:24:40;;;;;;;66.28;35.67;;;;;;;12.45;77.06;100037.31;5091046;28;20039;-72
2021/11/01 02:27:11;;;;;;;61.80;35.45;;;;;;;12.40;76.96;100042.28;5094525;28;20032;-72
2021/11/01 02:29:41;;;;;;;65.40;36.03;;;;;;;12.33;77.41;100035.97;5094129;28;20028;-72
2021/11/01 02:32:07;;;;;;;71.30;34.65;;;;;;;12.35;77.77;100041.13;5092313;28;20447;-72
2021/11/01 02:34:34;;;;;;;67.45;36.22;;;;;;;12.40;76.75;100034.31;5095270;28;20043;-72
2021/11/01 02:37:00;;;;;;;61.30;34.60;;;;;;;12.37;76.71;100036.47;5089948;28;20077;-72
2021/11/01 02:39:26;;;;;;;64.72;34.17;;;;;;;12.03;77.90;100036.63;5103544;28;20332;-72
2021/11/01 02:41:53;;;;;;;60.88;34.20;;;;;;;11.98;78.54;100033.63;5104825;28;20118;-71
2021/11/01 02:44:21;;;;;;;64.28;33.42;;;;;;;11.88;78.39;100040.91;5121539;28;20059;-71
2021/11/01 02:46:47;;;;;;;62.38;33.78;;;;;;;11.70;79.33;100035.72;5112638;27;20046;-72
2021/11/01 02:49:13;;;;;;;57.55;33.53;;;;;;;11.73;78.44;100036.22;5120117;27;20370;-72
2021/11/01 02:51:40;;;;;;;61.72;33.80;;;;;;;11.72;78.75;100033.72;5121012;27;20058;-72
2021/11/01 02:54:06;;;;;;;58.78;32.80;;;;;;;11.60;78.71;100033.19;5116356;27;20305;-71
2021/11/01 02:56:32;;;;;;;59.90;33.53;;;;;;;11.48;78.79;100030.03;5120077;27;20023;-72
2021/11/01 02:58:58;;;;;;;58.42;34.38;;;;;;;11.42;78.50;100035.09;5119546;27;20312;-72
2021/11/01 03:01:24;;;;;;;61.63;33.58;;;;;;;11.57;78.18;100030.88;5116704;27;20027;-72
2021/11/01 03:03:49;;;;;;;64.22;34.35;;;;;;;11.45;78.38;100040.13;5118381;27;20038;-72
2021/11/01 03:06:20;;;;;;;61.17;34.20;;;;;;;11.38;78.49;99999.28;5117144;27;20526;-72
2021/11/01 03:08:46;;;;;;;66.47;33.50;;;;;;;11.66;76.99;100018.47;5117869;27;20043;-72
2021/11/01 03:11:12;;;;;;;68.70;35.13;;;;;;;11.70;76.23;100028.59;5120308;27;20045;-72
2021/11/01 03:13:38;;;;;;;57.15;32.38;;;;;;;11.60;77.47;100022.59;5116793;27;20337;-72
2021/11/01 03:16:06;;;;;;;64.07;34.17;;;;;;;11.56;77.53;100023.91;5110896;27;20087;-72
2021/11/01 03:18:41;;;;;;;60.13;34.13;;;;;;;11.67;76.63;100022.78;5117096;27;20046;-71
2021/11/01 03:21:10;;;;;;;62.35;34.08;;;;;;;11.51;77.22;100008.47;5121581;27;20243;-71
2021/11/01 03:23:37;;;;;;;64.47;35.70;;;;;;;11.35;77.59;100012.88;5117722;27;20092;-72
2021/11/01 03:26:10;;;;;;;64.38;34.88;;;;;;;11.30;78.20;100007.22;5119958;27;20032;-72
2021/11/01 03:28:36;;;;;;;64.20;33.38;;;;;;;11.44;76.67;100009.25;5123769;27;20039;-72
2021/11/01 03:31:05;;;;;;;69.60;35.88;;;;;;;11.23;77.78;100008.84;5115222;27;20304;-72
2021/11/01 03:33:39;;;;;;;70.60;34.88;;;;;;;11.10;78.49;100010.13;5111451;27;20349;-72
2021/11/01 03:36:09;;;;;;;71.57;37.00;;;;;;;11.10;79.21;100001.34;5111991;27;20034;-72
2021/11/01 03:38:38;;;;;;;73.10;36.53;;;;;;;11.02;79.28;100001.31;5113166;27;20171;-72
2021/11/01 03:41:09;;;;;;;64.90;34.92;;;;;;;11.15;77.95;99999.03;5117832;27;20043;-72
2021/11/01 03:43:44;;;;;;;63.22;35.15;;;;;;;10.89;79.06;99996.44;5110188;27;20111;-72
2021/11/01 03:46:11;;;;;;;65.32;35.70;;;;;;;11.05;79.01;99988.56;5116531;27;20067;-71
2021/11/01 03:48:40;;;;;;;62.80;34.10;;;;;;;11.00;78.32;99982.91;5117388;27;20121;-71
2021/11/01 03:51:36;;;;;;;61.50;33.90;;;;;;;10.96;78.40;99992.19;5114136;27;20043;-72
2021/11/01 03:53:58;;;;;;;61.50;33.97;;;;;;;11.00;77.54;99990.88;5113528;27;20027;-72
2021/11/01 03:56:23;;;;;;;55.72;32.70;;;;;;;10.96;77.55;99981.56;5110081;28;20036;-72
2021/11/01 03:58:49;;;;;;;65.70;33.78;;;;;;;10.96;77.98;99983.41;5107248;28;20035;-72
2021/11/01 04:01:14;;;;;;;62.08;34.22;;;;;;;10.86;79.25;99980.88;5114845;27;20256;-72
2021/11/01 04:03:41;;;;;;;65.50;34.70;;;;;;;11.01;77.84;99987.22;5110071;28;20044;-72
2021/11/01 04:06:06;;;;;;;59.47;34.20;;;;;;;10.82;77.96;99977.69;5115042;27;20080;-72
2021/11/01 04:08:32;;;;;;;63.60;34.70;;;;;;;10.98;77.33;99976.94;5114322;28;20031;-72
2021/11/01 04:10:58;;;;;;;63.60;33.50;;;;;;;10.85;78.11;99984.50;5122536;27;20317;-71
2021/11/01 04:13:24;;;;;;;64.13;33.85;;;;;;;10.65;79.14;99975.13;5122087;27;20043;-71
2021/11/01 04:16:09;;;;;;;64.78;33.75;;;;;;;10.86;78.29;99967.63;5117747;27;20182;-72
2021/11/01 04:18:52;;;;;;;64.00;33.70;;;;;;;11.06;76.75;99973.50;5122649;27;20083;-72
2021/11/01 04:21:17;;;;;;;62.75;34.95;;;;;;;10.83;77.99;99968.75;5118454;27;20039;-72
2021/11/01 04:23:43;;;;;;;73.65;36.63;;;;;;;10.76;78.05;99967.75;5120335;27;20035;-72
2021/11/01 04:26:09;;;;;;;67.78;35.67;;;;;;;10.73;77.91;99967.22;5113435;27;20032;-72
2021/11/01 04:28:35;;;;;;;73.88;38.65;;;;;;;10.75;78.56;99963.44;5115013;27;20055;-71
2021/11/01 04:31:13;;;;;;;67.32;35.63;;;;;;;10.78;77.90;99963.09;5113685;27;20069;-72
2021/11/01 04:33:41;;;;;;;60.15;34.92;;;;;;;10.59;78.77;99955.41;5109347;27;20099;-72
2021/11/01 04:36:07;;;;;;;73.60;35.50;;;;;;;10.41;79.03;99962.56;5122411;27;20031;-72
2021/11/01 04:41:24;;;;;;;72.68;35.47;;;;;;;10.45;78.38;99958.63;5120226;27;20233;-72
2021/11/01 04:54:33;;;;;;;74.13;37.97;;;;;;;10.32;77.92;99960.81;5110596;27;20081;-72
2021/11/01 04:57:00;;;;;;;66.07;35.88;;;;;;;10.31;77.61;99957.34;5116545;27;20060;-72
2021/11/01 04:59:25;;;;;;;79.25;39.03;;;;;;;10.11;77.99;99958.50;5115353;27;20066;-72
2021/11/01 05:01:52;;;;;;;76.32;38.90;;;;;;;9.97;78.66;99953.75;5104567;28;20318;-72
2021/11/01 05:04:27;;;;;;;74.00;38.13;;;;;;;10.05;78.81;99957.28;5112796;27;20357;-72
2021/11/01 05:06:56;;;;;;;77.97;37.70;;;;;;;10.03;78.08;99958.41;5112076;27;20039;-72
2021/11/01 05:09:36;;;;;;;74.00;38.92;;;;;;;9.74;78.95;99959.50;5119820;27;20023;-71
2021/11/01 05:25:32;;;;;;;76.47;38.25;;;;;;;9.87;78.95;99965.25;5111872;28;20051;-71
2021/11/01 05:30:42;;;;;;;67.63;35.78;;;;;;;10.22;77.23;99963.56;5122199;28;20099;-71
2021/11/01 05:35:36;;;;;;;66.45;36.17;;;;;;;9.98;77.85;99956.25;5122082;28;20020;-71
2021/11/01 05:38:02;;;;;;;72.43;37.60;;;;;;;10.10;77.51;99965.59;5122175;28;20051;-71
2021/11/01 05:40:28;;;;;;;68.00;34.92;;;;;;;10.16;76.69;99970.28;5121751;28;20038;-72
2021/11/01 05:42:54;;;;;;;73.05;36.90;;;;;;;10.37;76.02;99967.31;5121883;28;20027;-72
2021/11/01 05:45:20;;;;;;;65.88;36.92;;;;;;;10.45;75.93;99971.84;5122035;28;20035;-72
2021/11/01 05:47:51;;;;;;;82.40;38.42;;;;;;;10.57;75.57;99972.44;5116194;28;20035;-71
2021/11/01 05:50:17;;;;;;;68.28;37.65;;;;;;;10.73;74.87;99967.22;5121888;28;20024;-72
2021/11/01 05:52:44;;;;;;;94.88;45.22;;;;;;;10.82;74.06;99968.94;5122190;28;20224;-71
2021/11/01 05:55:37;;;;;;;90.78;47.05;;;;;;;10.82;75.06;99975.06;5122087;28;20314;-71
2021/11/01 05:58:26;;;;;;;84.85;40.20;;;;;;;10.54;75.66;99973.56;5121495;28;20036;-71
2021/11/01 06:03:17;;;;;;;81.88;39.63;;;;;;;10.12;78.34;99973.38;5122078;28;20035;-72
2021/11/01 06:13:29;;;;;;;106.82;52.33;;;;;;;10.73;77.42;99967.22;5108226;28;20394;-72
2021/11/01 06:15:56;;;;;;;97.82;50.67;;;;;;;10.83;76.09;99973.22;5105033;27;20237;-72
2021/11/01 06:18:26;;;;;;;131.23;56.33;;;;;;;10.91;76.26;99975.91;5120150;28;20110;-72
2021/11/01 06:20:52;;;;;;;133.73;53.78;;;;;;;10.92;76.15;99982.06;5114419;27;20385;-72
2021/11/01 06:23:18;;;;;;;89.47;42.05;;;;;;;11.02;75.17;99983.59;5116200;27;20098;-72
2021/11/01 06:25:44;;;;;;;74.13;39.35;;;;;;;10.77;76.20;99977.34;5118526;27;20032;-72
2021/11/01 06:28:13;;;;;;;77.80;41.72;;;;;;;10.85;75.92;99979.19;5111458;27;20043;-72
2021/11/01 06:30:47;;;;;;;72.68;40.22;;;;;;;10.75;76.44;99979.31;5116678;27;20032;-72
2021/11/01 07:15:49;;;;;;;65.03;34.47;;;;;;;11.49;76.66;99949.47;5104620;28;20039;-72
2021/11/01 07:18:13;;;;;;;64.05;33.00;;;;;;;11.54;76.27;99938.38;5123210;27;20244;-72
2021/11/01 08:34:45;;;;;;;52.58;31.33;;;;;;;15.05;70.17;99903.59;5122028;28;20046;-72
2021/11/01 08:45:09;;;;;;;49.95;29.98;;;;;;;15.25;68.56;99902.81;5123115;27;20035;-72
2021/11/01 09:25:26;;;;;;;44.40;23.65;;;;;;;15.87;63.06;99851.50;5115356;27;20040;-72
2021/11/01 09:27:32;;;;;;;35.08;20.90;;;;;;;15.71;63.22;99853.63;5110056;28;20056;-72
2021/11/01 09:30:16;;;;;;;36.60;22.33;;;;;;;15.69;62.90;99843.16;5114925;27;20034;-72
2021/11/01 09:43:23;;;;;;;39.38;23.27;;;;;;;14.92;63.07;99825.09;5112310;28;20030;-73
2021/11/01 09:45:54;;;;;;;38.03;23.67;;;;;;;14.89;64.50;99814.81;5111763;28;20221;-72
2021/11/01 09:48:19;;;;;;;41.40;24.85;;;;;;;15.09;65.65;99817.69;5114432;28;20039;-72
2021/11/01 09:50:45;;;;;;;47.55;28.02;;;;;;;15.21;65.91;99810.00;5114889;28;20057;-73
2021/11/01 09:53:20;;;;;;;46.05;27.58;;;;;;;15.35;65.57;99798.44;5116699;28;20117;-73
2021/11/01 09:55:50;;;;;;;32.83;21.30;;;;;;;15.49;64.33;99796.72;5120285;27;20066;-73
2021/11/01 10:01:06;;;;;;;35.92;22.45;;;;;;;15.74;62.65;99795.34;5125197;27;20221;-72
2021/11/01 10:03:43;;;;;;;37.10;23.60;;;;;;;15.84;62.85;99787.00;5124529;28;20028;-72
2021/11/01 10:06:16;;;;;;;37.08;22.75;;;;;;;15.70;62.85;99785.25;5126291;27;20065;-72
2021/11/01 10:08:56;;;;;;;33.67;21.95;;;;;;;15.56;64.14;99782.41;5125312;28;20059;-72
2021/11/01 10:11:24;;;;;;;42.63;25.13;;;;;;;15.55;63.68;99780.78;5124324;28;20035;-72
2021/11/01 10:14:01;;;;;;;38.80;23.60;;;;;;;15.58;63.79;99775.06;5126206;27;20032;-73
2021/11/01 10:19:31;;;;;;;38.03;23.58;;;;;;;15.81;61.56;99758.84;5124388;28;20080;-72
2021/11/01 10:22:01;;;;;;;31.60;19.63;;;;;;;15.97;60.82;99765.72;5124667;28;20249;-73
2021/11/01 10:24:31;;;;;;;34.25;20.88;;;;;;;15.91;60.58;99755.81;5124614;28;20019;-72
2021/11/01 10:26:58;;;;;;;35.83;21.92;;;;;;;15.98;61.19;99746.00;5124090;28;20040;-73
2021/11/01 10:29:23;;;;;;;31.15;18.85;;;;;;;15.57;61.64;99751.22;5124597;28;20215;-72
2021/11/01 10:31:49;;;;;;;34.28;21.25;;;;;;;15.71;62.40;99741.53;5125675;27;20050;-72
2021/11/01 10:34:15;;;;;;;38.70;21.58;;;;;;;15.81;62.64;99739.34;5124020;27;20036;-72
2021/11/01 10:36:43;;;;;;;40.63;22.55;;;;;;;15.57;63.45;99728.06;5124653;28;20336;-72
2021/11/01 10:39:27;;;;;;;41.88;24.23;;;;;;;15.45;64.69;99723.41;5123170;28;20058;-73
2021/11/01 11:14:59;;;;;;;32.03;19.10;;;;;;;15.82;62.45;99684.91;5123447;28;20233;-72
2021/11/01 11:23:26;;;;;;;32.85;21.73;;;;;;;15.73;62.43;99676.25;5123321;28;20360;-73
2021/11/01 11:48:35;;;;;;;39.33;22.33;;;;;;;16.16;61.61;99655.47;5068555;28;20045;-73
2021/11/01 11:50:40;;;;;;;36.22;22.20;;;;;;;16.17;61.34;99648.28;5065938;28;20048;-72
2021/11/01 11:53:20;;;;;;;41.83;21.98;;;;;;;16.11;61.42;99651.75;5102295;27;20070;-73
2021/11/01 11:55:59;;;;;;;33.92;21.95;;;;;;;16.14;60.77;99649.50;5119764;27;20032;-73
2021/11/01 11:58:37;;;;;;;37.08;21.05;;;;;;;16.45;60.21;99640.97;5117534;27;20336;-72
2021/11/01 12:01:28;;;;;;;33.83;21.45;;;;;;;16.20;60.22;99624.66;5118216;27;20036;-72
2021/11/01 12:03:58;;;;;;;31.77;21.23;;;;;;;16.32;60.32;99638.25;5118459;27;20092;-72
2021/11/01 12:06:53;;;;;;;33.67;21.05;;;;;;;16.31;60.63;99638.47;5117316;27;20331;-72
2021/11/01 12:09:54;;;;;;;28.98;18.30;;;;;;;16.19;60.42;99632.88;5114797;27;20085;-72
2021/11/01 12:17:03;;;;;;;35.15;21.70;;;;;;;16.07;61.70;99631.81;5119368;27;20213;-73
2021/11/01 12:17:29;;;;;;;38.17;20.38;;;;;;;16.04;62.35;99619.69;5115934;27;20265;-73
2021/11/01 12:20:07;;;;;;;31.90;20.55;;;;;;;15.90;61.79;99626.00;5116389;27;20332;-73
2021/11/01 12:22:35;;;;;;;28.58;19.23;;;;;;;15.84;62.01;99618.78;5119267;27;20024;-73
2021/11/01 12:25:06;;;;;;;32.75;20.30;;;;;;;15.94;61.93;99620.06;5115783;27;20073;-73
2021/11/01 12:27:34;;;;;;;33.70;19.70;;;;;;;15.96;62.60;99614.53;5115186;27;20047;-73
2021/11/01 12:30:03;;;;;;;32.53;19.40;;;;;;;16.12;60.65;99614.16;5114645;27;20039;-72
2021/11/01 12:32:28;;;;;;;31.27;20.13;;;;;;;16.07;61.75;99623.81;5115802;27;20035;-72
2021/11/01 12:35:00;;;;;;;33.53;19.63;;;;;;;16.10;61.84;99626.06;5115190;28;20896;-73
2021/11/01 12:37:33;;;;;;;34.67;19.80;;;;;;;16.21;62.30;99618.31;5116621;28;20174;-72
2021/11/01 12:40:23;;;;;;;30.85;19.63;;;;;;;15.89;61.85;99609.16;5118790;27;20374;-72
2021/11/01 12:59:43;;;;;;;32.33;20.02;;;;;;;16.02;62.42;99607.56;5116508;27;20019;-73
2021/11/01 13:02:18;;;;;;;36.67;21.90;;;;;;;16.14;63.38;99585.41;5116025;27;20034;-72
2021/11/01 13:04:45;;;;;;;31.95;20.58;;;;;;;16.18;63.83;99607.19;5116114;27;20325;-72
2021/11/01 13:07:24;;;;;;;32.90;21.38;;;;;;;16.11;62.84;99593.81;5114302;27;20039;-73
2021/11/01 13:18:32;;;;;;;32.70;19.08;;;;;;;16.00;62.70;99596.25;5118995;27;20348;-72
2021/11/01 13:21:00;;;;;;;31.38;20.35;;;;;;;16.07;62.23;99591.75;5118489;27;20027;-73
2021/11/01 13:23:30;;;;;;;30.95;20.83;;;;;;;16.06;62.36;99595.44;5118595;28;20286;-72
2021/11/01 13:36:42;;;;;;;38.13;23.17;;;;;;;15.94;63.44;99593.34;5117020;28;20046;-73
2021/11/01 13:39:09;;;;;;;37.53;23.27;;;;;;;15.95;63.55;99594.19;5112873;28;20031;-72
2021/11/01 13:41:35;;;;;;;38.20;22.13;;;;;;;16.02;63.41;99591.53;5115688;28;20028;-73
2021/11/01 13:44:11;;;;;;;36.67;22.60;;;;;;;15.84;64.17;99594.75;5111081;28;20042;-73
2021/11/01 13:46:52;;;;;;;36.25;22.30;;;;;;;15.89;65.48;99579.78;5116181;28;21492;-72
2021/11/01 13:49:20;;;;;;;36.08;22.13;;;;;;;15.85;64.61;99593.75;5126031;28;20028;-72
2021/11/01 13:51:49;;;;;;;34.35;21.02;;;;;;;15.55;64.71;99591.28;5116842;28;20335;-72
2021/11/01 13:54:29;;;;;;;28.70;19.02;;;;;;;15.55;64.28;99587.78;5115497;28;20027;-73
2021/11/01 13:56:58;;;;;;;33.75;21.27;;;;;;;15.83;64.34;99583.25;5115827;28;20023;-73
2021/11/01 14:03:02;;;;;;;35.78;21.80;;;;;;;15.81;64.76;99587.97;5115589;28;20098;-72
2021/11/01 14:13:12;;;;;;;36.85;23.20;;;;;;;15.90;64.02;99581.44;5114244;28;20267;-73
2021/11/01 14:16:17;;;;;;;39.72;23.20;;;;;;;16.04;63.65;99581.47;5113907;28;20027;-73
2021/11/01 14:29:33;;;;;;;42.53;26.75;;;;;;;15.58;66.18;99574.91;5114478;28;20034;-72
2021/11/01 14:59:07;;;;;;;77.88;37.05;;;;;;;15.64;65.03;99571.47;5119733;27;20042;-72
2021/11/01 15:27:32;;;;;;;76.35;37.70;;;;;;;15.57;65.65;99570.59;5118598;27;20241;-72
2021/11/01 16:18:01;;;;;;;135.63;52.72;;;;;;;14.45;71.00;99596.41;5116650;27;20067;-72
2021/11/01 16:20:27;;;;;;;117.60;56.00;;;;;;;14.30;71.22;99600.94;5114767;27;20028;-72
2021/11/01 16:25:27;;;;;;;88.97;42.97;;;;;;;14.51;69.64;99600.16;5118713;27;20085;-71
2021/11/01 16:27:53;;;;;;;103.60;45.80;;;;;;;14.26;70.01;99592.50;5120229;27;20302;-72
2021/11/01 16:30:22;;;;;;;111.82;38.25;;;;;;;14.00;71.39;99608.19;5117343;27;20031;-71
2021/11/01 16:32:58;;;;;;;78.43;31.65;;;;;;;13.83;71.39;99602.25;5120236;27;20252;-71
2021/11/01 16:35:26;;;;;;;64.05;32.60;;;;;;;13.24;74.44;99604.09;5118584;27;20035;-71
2021/11/01 16:38:03;;;;;;;63.55;30.25;;;;;;;13.22;74.70;99625.56;5114187;28;20879;-71
2021/11/01 16:40:29;;;;;;;65.43;33.40;;;;;;;13.18;74.52;99620.78;5115965;27;20966;-71
2021/11/01 16:42:55;;;;;;;81.32;43.08;;;;;;;13.04;75.44;99625.88;5114312;27;20015;-71
2021/11/01 16:45:33;;;;;;;84.53;40.53;;;;;;;13.08;75.27;99629.81;5117374;27;20349;-72
2021/11/01 16:48:00;;;;;;;69.50;36.38;;;;;;;13.01;75.09;99622.75;5116643;27;20393;-71
2021/11/01 16:50:26;;;;;;;71.97;34.60;;;;;;;12.93;76.38;99628.13;5117251;27;20034;-71
2021/11/01 16:52:52;;;;;;;77.32;37.78;;;;;;;12.86;77.14;99606.78;5114755;27;20043;-71
2021/11/01 16:55:21;;;;;;;87.15;42.72;;;;;;;13.08;77.36;99629.00;5116898;27;20080;-71
2021/11/01 16:57:58;;;;;;;74.60;36.60;;;;;;;12.94;77.06;99635.09;5117748;27;20036;-71
2021/11/01 17:29:49;;;;;;;69.72;36.75;;;;;;;13.49;77.50;99640.06;5113134;28;20030;-71
2021/11/01 18:40:34;;;;;;;69.47;36.28;;;;;;;12.77;85.53;99650.38;5124484;28;20092;-72
2021/11/01 18:43:10;;;;;;;76.03;36.45;;;;;;;12.78;85.36;99654.66;5124025;28;20028;-72
2021/11/01 18:51:04;;;;;;;68.88;35.70;;;;;;;12.73;85.38;99655.22;5124718;28;20363;-72
2021/11/01 18:53:39;;;;;;;73.70;37.88;;;;;;;12.78;85.66;99649.34;5124942;28;20035;-71
2021/11/01 18:56:07;;;;;;;76.93;37.83;;;;;;;12.74;85.72;99651.53;5124007;28;20198;-72
2021/11/01 18:58:36;;;;;;;82.07;43.40;;;;;;;12.61;86.30;99661.13;5124575;27;20027;-72
2021/11/01 19:01:02;;;;;;;82.60;42.53;;;;;;;12.73;86.41;99654.38;5124977;28;20053;-72
2021/11/01 19:03:32;;;;;;;82.53;43.83;;;;;;;12.86;85.71;99659.91;5123748;28;20107;-72
2021/11/01 19:08:50;;;;;;;81.55;39.80;;;;;;;12.94;84.98;99651.06;5124340;28;20144;-72
2021/11/01 20:04:11;;;;;;;;;;;;;;;12.61;90.73;99672.56;5121918;28;20280;-72
2021/11/01 20:12:17;;;;;;;78.82;41.10;;;;;;;12.59;90.86;99665.78;5122468;28;20271;-72
2021/11/01 21:26:21;;;;;;;97.38;51.42;;;;;;;13.42;85.76;99658.59;5120356;28;20366;-72
2021/11/01 21:28:48;;;;;;;91.85;50.88;;;;;;;13.49;85.98;99649.88;5121382;28;20016;-71
2021/11/01 21:31:14;;;;;;;84.03;47.50;;;;;;;13.65;85.19;99644.41;5121355;28;20027;-72
2021/11/01 21:33:39;;;;;;;91.55;49.05;;;;;;;13.58;85.71;99651.47;5121505;28;20068;-72
2021/11/01 21:36:06;;;;;;;83.78;48.22;;;;;;;13.58;85.17;99648.81;5121237;28;20036;-72
2021/11/01 21:38:32;;;;;;;84.90;48.13;;;;;;;13.60;85.19;99630.81;5121578;28;20022;-72
2021/11/01 21:40:58;;;;;;;88.05;47.35;;;;;;;13.71;85.44;99652.47;5119881;28;20015;-72
2021/11/01 21:43:23;;;;;;;93.15;47.15;;;;;;;13.81;84.67;99630.06;5121180;28;20040;-71
2021/11/01 21:45:50;;;;;;;83.35;46.15;;;;;;;13.88;83.73;99625.66;5121290;28;20077;-72
2021/11/01 21:48:15;;;;;;;87.65;46.17;;;;;;;13.96;82.95;99622.91;5120893;28;20061;-72
2021/11/01 21:50:45;;;;;;;77.00;44.22;;;;;;;13.84;83.91;99621.72;5123793;28;20515;-71
2021/11/01 21:53:15;;;;;;;75.25;40.75;;;;;;;13.79;84.78;99613.47;5126373;28;20039;-72
2021/11/01 21:55:41;;;;;;;82.35;43.35;;;;;;;13.62;86.04;99623.50;5126410;28;20243;-72
2021/11/01 22:17:09;;;;;;;82.68;42.50;;;;;;;13.72;84.58;99600.09;5123101;27;20083;-72
2021/11/01 22:19:52;;;;;;;78.97;42.90;;;;;;;13.45;85.10;99560.81;5117306;27;20135;-72
2021/11/01 22:24:58;;;;;;;83.43;43.28;;;;;;;13.09;88.78;99594.25;5116843;27;20330;-72
2021/11/01 22:41:10;;;;;;;84.38;42.10;;;;;;;13.53;86.86;99577.53;5110645;27;20039;-72
2021/11/01 22:57:06;;;;;;;;;;;;;;;13.73;85.61;99562.66;5114579;27;20076;-72
2021/11/01 22:59:32;;;;;;;85.53;41.63;;;;;;;13.63;86.11;99559.44;5108685;27;20155;-72
2021/11/01 23:01:58;;;;;;;92.82;43.78;;;;;;;13.56;86.51;99547.91;5121742;27;20024;-73
2021/11/01 23:04:49;;;;;;;98.55;45.58;;;;;;;13.45;86.84;99551.00;5112299;27;20039;-72
2021/11/01 23:31:52;;;;;;;102.53;42.90;;;;;;;13.45;87.98;99527.06;5116512;27;19938;-73
2021/11/01 23:34:17;;;;;;;87.50;41.42;;;;;;;13.37;88.51;99530.66;5111970;28;20322;-72
2021/11/01 23:36:44;;;;;;;99.28;44.08;;;;;;;13.50;87.96;99524.69;5109413;27;20043;-72
2021/11/01 23:39:12;;;;;;;104.30;45.67;;;;;;;13.48;87.10;99518.72;5113376;27;20030;-72
2021/11/01 23:41:43;;;;;;;88.38;42.95;;;;;;;13.53;86.94;99521.69;5113493;27;20036;-72
2021/11/01 23:44:10;;;;;;;100.35;46.05;;;;;;;13.65;85.75;99512.19;5120391;27;20037;-72
2021/11/01 23:46:35;;;;;;;96.68;45.15;;;;;;;13.55;86.74;99510.84;5118013;27;20034;-72
2021/11/01 23:49:02;;;;;;;99.00;46.03;;;;;;;13.63;86.00;99508.06;5122540;27;20023;-72
2021/11/01 23:51:32;;;;;;;94.15;44.92;;;;;;;13.63;86.02;99516.06;5115861;27;20272;-72
2021/11/01 23:56:37;;;;;;;97.97;45.17;;;;;;;13.43;87.47;99499.84;5109217;27;20028;-72
2021/11/01 23:59:03;;;;;;;92.78;43.75;;;;;;;13.61;86.48;99510.94;5116530;27;20205;-72
